sensor_id;sensor_type;location;lat;lon;timestamp;P1;durP1;ratioP1;P2;durP2;ratioP2
72109;SDS011;59983;52.010;5.420;2022-12-05T00:00:48;52.05;;;28.35;;
72109;SDS011;59983;52.010;5.420;2022-12-05T00:03:14;122.83;;;46.00;;
72109;SDS011;59983;52.010;5.420;2022-12-05T00:05:41;95.22;;;38.15;;
72109;SDS011;59983;52.010;5.420;2022-12-05T00:08:08;52.78;;;30.67;;
72109;SDS011;59983;52.010;5.420;2022-12-05T00:10:35;47.85;;;26.85;;
72109;SDS011;59983;52.010;5.420;2022-12-05T00:13:02;45.55;;;27.17;;
72109;SDS011;59983;52.010;5.420;2022-12-05T00:15:29;48.70;;;28.33;;
72109;SDS011;59983;52.010;5.420;2022-12-05T00:17:56;47.22;;;28.05;;
72109;SDS011;59983;52.010;5.420;2022-12-05T00:20:23;49.20;;;27.77;;
72109;SDS011;59983;52.010;5.420;2022-12-05T00:22:49;45.45;;;27.33;;
72109;SDS011;59983;52.010;5.420;2022-12-05T00:25:16;46.65;;;27.05;;
72109;SDS011;59983;52.010;5.420;2022-12-05T00:27:42;47.20;;;27.53;;
72109;SDS011;59983;52.010;5.420;2022-12-05T00:30:09;44.28;;;27.48;;
72109;SDS011;59983;52.010;5.420;2022-12-05T00:32:36;48.45;;;28.52;;
72109;SDS011;59983;52.010;5.420;2022-12-05T00:35:02;46.25;;;28.08;;
72109;SDS011;59983;52.010;5.420;2022-12-05T00:37:29;47.63;;;28.50;;
72109;SDS011;59983;52.010;5.420;2022-12-05T00:39:55;45.07;;;28.00;;
72109;SDS011;59983;52.010;5.420;2022-12-05T00:42:22;48.90;;;28.33;;
72109;SDS011;59983;52.010;5.420;2022-12-05T00:44:48;50.38;;;29.33;;
72109;SDS011;59983;52.010;5.420;2022-12-05T00:47:15;46.30;;;28.17;;
72109;SDS011;59983;52.010;5.420;2022-12-05T00:49:42;50.53;;;29.77;;
72109;SDS011;59983;52.010;5.420;2022-12-05T00:52:08;46.07;;;28.93;;
72109;SDS011;59983;52.010;5.420;2022-12-05T00:54:35;46.50;;;28.35;;
72109;SDS011;59983;52.010;5.420;2022-12-05T00:57:01;45.35;;;28.88;;
72109;SDS011;59983;52.010;5.420;2022-12-05T00:59:28;44.78;;;28.75;;
72109;SDS011;59983;52.010;5.420;2022-12-05T01:01:54;45.95;;;28.13;;
72109;SDS011;59983;52.010;5.420;2022-12-05T01:04:21;49.73;;;29.27;;
72109;SDS011;59983;52.010;5.420;2022-12-05T01:06:52;43.28;;;26.70;;
72109;SDS011;59983;52.010;5.420;2022-12-05T01:09:20;46.88;;;29.85;;
72109;SDS011;59983;52.010;5.420;2022-12-05T01:11:47;46.53;;;28.15;;
72109;SDS011;59983;52.010;5.420;2022-12-05T01:14:15;48.42;;;28.60;;
72109;SDS011;59983;52.010;5.420;2022-12-05T01:16:43;45.30;;;28.87;;
72109;SDS011;59983;52.010;5.420;2022-12-05T01:19:13;48.60;;;28.05;;
72109;SDS011;59983;52.010;5.420;2022-12-05T01:21:44;44.75;;;24.75;;
72109;SDS011;59983;52.010;5.420;2022-12-05T01:24:13;48.85;;;28.42;;
72109;SDS011;59983;52.010;5.420;2022-12-05T01:26:41;42.85;;;26.30;;
72109;SDS011;59983;52.010;5.420;2022-12-05T01:29:08;45.00;;;26.83;;
72109;SDS011;59983;52.010;5.420;2022-12-05T01:31:37;48.22;;;28.95;;
72109;SDS011;59983;52.010;5.420;2022-12-05T01:34:04;45.72;;;28.00;;
72109;SDS011;59983;52.010;5.420;2022-12-05T01:36:32;42.83;;;28.42;;
72109;SDS011;59983;52.010;5.420;2022-12-05T01:38:59;41.22;;;26.40;;
72109;SDS011;59983;52.010;5.420;2022-12-05T01:41:36;43.47;;;27.70;;
72109;SDS011;59983;52.010;5.420;2022-12-05T01:46:42;44.72;;;27.13;;
72109;SDS011;59983;52.010;5.420;2022-12-05T01:49:18;45.00;;;27.58;;
72109;SDS011;59983;52.010;5.420;2022-12-05T01:51:52;43.60;;;26.17;;
72109;SDS011;59983;52.010;5.420;2022-12-05T01:54:23;41.83;;;26.67;;
72109;SDS011;59983;52.010;5.420;2022-12-05T01:56:58;45.95;;;27.77;;
72109;SDS011;59983;52.010;5.420;2022-12-05T01:59:27;44.33;;;26.73;;
72109;SDS011;59983;52.010;5.420;2022-12-05T02:01:57;43.42;;;26.83;;
72109;SDS011;59983;52.010;5.420;2022-12-05T02:04:24;41.50;;;24.35;;
72109;SDS011;59983;52.010;5.420;2022-12-05T02:06:53;41.60;;;26.67;;
72109;SDS011;59983;52.010;5.420;2022-12-05T02:09:20;39.30;;;26.23;;
72109;SDS011;59983;52.010;5.420;2022-12-05T02:11:52;39.33;;;27.10;;
72109;SDS011;59983;52.010;5.420;2022-12-05T02:17:20;41.83;;;25.83;;
72109;SDS011;59983;52.010;5.420;2022-12-05T02:23:01;42.53;;;25.45;;
72109;SDS011;59983;52.010;5.420;2022-12-05T02:25:40;40.05;;;25.55;;
72109;SDS011;59983;52.010;5.420;2022-12-05T02:34:22;39.20;;;26.17;;
72109;SDS011;59983;52.010;5.420;2022-12-05T02:36:56;46.78;;;27.67;;
72109;SDS011;59983;52.010;5.420;2022-12-05T02:39:35;37.13;;;24.77;;
72109;SDS011;59983;52.010;5.420;2022-12-05T02:42:42;38.00;;;25.40;;
72109;SDS011;59983;52.010;5.420;2022-12-05T02:45:29;38.08;;;24.15;;
72109;SDS011;59983;52.010;5.420;2022-12-05T02:47:59;37.87;;;23.90;;
72109;SDS011;59983;52.010;5.420;2022-12-05T02:50:31;41.80;;;26.92;;
72109;SDS011;59983;52.010;5.420;2022-12-05T02:53:02;37.60;;;25.88;;
72109;SDS011;59983;52.010;5.420;2022-12-05T02:55:32;37.03;;;25.17;;
72109;SDS011;59983;52.010;5.420;2022-12-05T02:58:02;37.42;;;26.13;;
72109;SDS011;59983;52.010;5.420;2022-12-05T03:00:33;47.93;;;27.23;;
72109;SDS011;59983;52.010;5.420;2022-12-05T03:03:01;39.28;;;25.13;;
72109;SDS011;59983;52.010;5.420;2022-12-05T03:05:32;43.53;;;25.55;;
72109;SDS011;59983;52.010;5.420;2022-12-05T03:08:09;37.08;;;25.13;;
72109;SDS011;59983;52.010;5.420;2022-12-05T03:10:40;41.72;;;26.65;;
72109;SDS011;59983;52.010;5.420;2022-12-05T03:13:13;40.53;;;25.93;;
72109;SDS011;59983;52.010;5.420;2022-12-05T03:15:45;39.22;;;24.27;;
72109;SDS011;59983;52.010;5.420;2022-12-05T03:20:47;40.90;;;27.55;;
72109;SDS011;59983;52.010;5.420;2022-12-05T03:24:00;39.38;;;27.30;;
72109;SDS011;59983;52.010;5.420;2022-12-05T03:26:28;44.77;;;25.60;;
72109;SDS011;59983;52.010;5.420;2022-12-05T03:32:15;35.97;;;24.33;;
72109;SDS011;59983;52.010;5.420;2022-12-05T03:40:50;34.97;;;24.57;;
72109;SDS011;59983;52.010;5.420;2022-12-05T03:43:30;39.83;;;25.35;;
72109;SDS011;59983;52.010;5.420;2022-12-05T03:51:27;37.72;;;24.23;;
72109;SDS011;59983;52.010;5.420;2022-12-05T03:56:53;36.45;;;23.23;;
72109;SDS011;59983;52.010;5.420;2022-12-05T03:59:29;38.63;;;23.83;;
72109;SDS011;59983;52.010;5.420;2022-12-05T04:02:00;35.50;;;22.92;;
72109;SDS011;59983;52.010;5.420;2022-12-05T04:04:34;36.20;;;24.05;;
72109;SDS011;59983;52.010;5.420;2022-12-05T04:07:06;39.87;;;24.50;;
72109;SDS011;59983;52.010;5.420;2022-12-05T04:09:44;33.25;;;23.33;;
72109;SDS011;59983;52.010;5.420;2022-12-05T04:12:16;36.47;;;23.33;;
72109;SDS011;59983;52.010;5.420;2022-12-05T04:14:49;42.22;;;23.88;;
72109;SDS011;59983;52.010;5.420;2022-12-05T04:20:05;31.83;;;21.13;;
72109;SDS011;59983;52.010;5.420;2022-12-05T04:22:57;34.13;;;21.83;;
72109;SDS011;59983;52.010;5.420;2022-12-05T04:25:24;36.53;;;23.13;;
72109;SDS011;59983;52.010;5.420;2022-12-05T04:33:24;27.43;;;20.13;;
72109;SDS011;59983;52.010;5.420;2022-12-05T04:36:00;33.45;;;22.02;;
72109;SDS011;59983;52.010;5.420;2022-12-05T04:38:46;34.25;;;21.00;;
72109;SDS011;59983;52.010;5.420;2022-12-05T04:41:32;31.90;;;21.40;;
72109;SDS011;59983;52.010;5.420;2022-12-05T04:44:04;31.23;;;21.05;;
72109;SDS011;59983;52.010;5.420;2022-12-05T04:46:35;32.43;;;21.37;;
72109;SDS011;59983;52.010;5.420;2022-12-05T04:49:06;34.10;;;22.27;;
72109;SDS011;59983;52.010;5.420;2022-12-05T04:51:36;28.05;;;21.40;;
72109;SDS011;59983;52.010;5.420;2022-12-05T04:54:11;34.70;;;22.63;;
72109;SDS011;59983;52.010;5.420;2022-12-05T04:56:42;31.15;;;21.33;;
72109;SDS011;59983;52.010;5.420;2022-12-05T04:59:12;32.77;;;23.70;;
72109;SDS011;59983;52.010;5.420;2022-12-05T05:01:40;32.75;;;22.17;;
72109;SDS011;59983;52.010;5.420;2022-12-05T05:04:21;31.90;;;22.00;;
72109;SDS011;59983;52.010;5.420;2022-12-05T05:06:53;30.73;;;20.85;;
72109;SDS011;59983;52.010;5.420;2022-12-05T05:09:20;31.95;;;23.27;;
72109;SDS011;59983;52.010;5.420;2022-12-05T05:11:46;31.63;;;20.53;;
72109;SDS011;59983;52.010;5.420;2022-12-05T05:14:13;33.72;;;22.15;;
72109;SDS011;59983;52.010;5.420;2022-12-05T05:16:40;26.95;;;20.10;;
72109;SDS011;59983;52.010;5.420;2022-12-05T05:19:07;30.30;;;21.77;;
72109;SDS011;59983;52.010;5.420;2022-12-05T05:21:37;32.15;;;21.02;;
72109;SDS011;59983;52.010;5.420;2022-12-05T05:24:05;30.53;;;21.57;;
72109;SDS011;59983;52.010;5.420;2022-12-05T05:26:33;29.33;;;21.30;;
72109;SDS011;59983;52.010;5.420;2022-12-05T05:29:01;33.63;;;22.08;;
72109;SDS011;59983;52.010;5.420;2022-12-05T05:31:29;33.58;;;22.05;;
72109;SDS011;59983;52.010;5.420;2022-12-05T05:33:56;28.00;;;22.13;;
72109;SDS011;59983;52.010;5.420;2022-12-05T05:36:24;31.60;;;22.07;;
72109;SDS011;59983;52.010;5.420;2022-12-05T05:38:52;29.50;;;22.05;;
72109;SDS011;59983;52.010;5.420;2022-12-05T05:41:22;29.38;;;21.23;;
72109;SDS011;59983;52.010;5.420;2022-12-05T05:43:51;28.73;;;21.02;;
72109;SDS011;59983;52.010;5.420;2022-12-05T05:46:19;28.10;;;20.02;;
72109;SDS011;59983;52.010;5.420;2022-12-05T05:48:47;27.03;;;19.20;;
72109;SDS011;59983;52.010;5.420;2022-12-05T05:51:14;29.17;;;20.95;;
72109;SDS011;59983;52.010;5.420;2022-12-05T05:53:42;29.73;;;20.00;;
72109;SDS011;59983;52.010;5.420;2022-12-05T05:56:09;31.80;;;21.38;;
72109;SDS011;59983;52.010;5.420;2022-12-05T05:58:45;28.45;;;20.70;;
72109;SDS011;59983;52.010;5.420;2022-12-05T06:01:13;33.70;;;21.57;;
72109;SDS011;59983;52.010;5.420;2022-12-05T06:03:41;31.98;;;20.92;;
72109;SDS011;59983;52.010;5.420;2022-12-05T06:06:09;29.77;;;21.92;;
72109;SDS011;59983;52.010;5.420;2022-12-05T06:08:38;28.85;;;21.58;;
72109;SDS011;59983;52.010;5.420;2022-12-05T06:11:07;30.10;;;20.42;;
72109;SDS011;59983;52.010;5.420;2022-12-05T06:13:36;28.47;;;21.83;;
72109;SDS011;59983;52.010;5.420;2022-12-05T06:16:09;28.05;;;21.45;;
72109;SDS011;59983;52.010;5.420;2022-12-05T06:18:37;28.65;;;20.75;;
72109;SDS011;59983;52.010;5.420;2022-12-05T06:21:04;30.00;;;21.63;;
72109;SDS011;59983;52.010;5.420;2022-12-05T06:23:41;28.95;;;21.02;;
72109;SDS011;59983;52.010;5.420;2022-12-05T06:26:11;25.83;;;19.67;;
72109;SDS011;59983;52.010;5.420;2022-12-05T06:28:40;34.28;;;20.95;;
72109;SDS011;59983;52.010;5.420;2022-12-05T06:31:08;35.17;;;21.35;;
72109;SDS011;59983;52.010;5.420;2022-12-05T06:33:36;31.13;;;20.67;;
72109;SDS011;59983;52.010;5.420;2022-12-05T06:36:06;25.88;;;20.33;;
72109;SDS011;59983;52.010;5.420;2022-12-05T06:38:35;30.53;;;20.47;;
72109;SDS011;59983;52.010;5.420;2022-12-05T06:41:08;27.05;;;19.55;;
72109;SDS011;59983;52.010;5.420;2022-12-05T06:43:36;29.08;;;20.50;;
72109;SDS011;59983;52.010;5.420;2022-12-05T06:46:03;27.33;;;18.77;;
72109;SDS011;59983;52.010;5.420;2022-12-05T06:48:31;28.17;;;19.73;;
72109;SDS011;59983;52.010;5.420;2022-12-05T06:50:58;28.83;;;20.97;;
72109;SDS011;59983;52.010;5.420;2022-12-05T06:53:25;29.75;;;20.67;;
72109;SDS011;59983;52.010;5.420;2022-12-05T06:56:02;31.75;;;20.17;;
72109;SDS011;59983;52.010;5.420;2022-12-05T06:58:30;24.98;;;18.60;;
72109;SDS011;59983;52.010;5.420;2022-12-05T07:00:57;31.25;;;21.65;;
72109;SDS011;59983;52.010;5.420;2022-12-05T07:03:42;24.03;;;20.57;;
72109;SDS011;59983;52.010;5.420;2022-12-05T07:06:14;30.25;;;20.88;;
72109;SDS011;59983;52.010;5.420;2022-12-05T07:08:41;29.25;;;21.30;;
72109;SDS011;59983;52.010;5.420;2022-12-05T07:11:09;32.45;;;20.23;;
72109;SDS011;59983;52.010;5.420;2022-12-05T07:13:36;28.00;;;21.13;;
72109;SDS011;59983;52.010;5.420;2022-12-05T07:16:02;30.27;;;20.37;;
72109;SDS011;59983;52.010;5.420;2022-12-05T07:18:32;30.98;;;20.27;;
72109;SDS011;59983;52.010;5.420;2022-12-05T07:21:00;30.48;;;21.73;;
72109;SDS011;59983;52.010;5.420;2022-12-05T07:23:38;26.40;;;21.35;;
72109;SDS011;59983;52.010;5.420;2022-12-05T07:26:08;31.38;;;20.02;;
72109;SDS011;59983;52.010;5.420;2022-12-05T07:28:36;29.03;;;20.33;;
72109;SDS011;59983;52.010;5.420;2022-12-05T07:31:04;25.85;;;20.20;;
72109;SDS011;59983;52.010;5.420;2022-12-05T07:33:35;26.05;;;19.67;;
72109;SDS011;59983;52.010;5.420;2022-12-05T07:36:06;29.75;;;21.90;;
72109;SDS011;59983;52.010;5.420;2022-12-05T07:38:35;24.50;;;19.80;;
72109;SDS011;59983;52.010;5.420;2022-12-05T07:41:20;28.50;;;19.67;;
72109;SDS011;59983;52.010;5.420;2022-12-05T07:43:52;27.13;;;20.45;;
72109;SDS011;59983;52.010;5.420;2022-12-05T07:46:20;25.63;;;20.50;;
72109;SDS011;59983;52.010;5.420;2022-12-05T07:48:48;25.15;;;20.75;;
72109;SDS011;59983;52.010;5.420;2022-12-05T07:51:15;28.25;;;21.38;;
72109;SDS011;59983;52.010;5.420;2022-12-05T07:53:42;28.60;;;19.43;;
72109;SDS011;59983;52.010;5.420;2022-12-05T07:56:10;30.73;;;20.88;;
72109;SDS011;59983;52.010;5.420;2022-12-05T07:58:42;31.48;;;22.23;;
72109;SDS011;59983;52.010;5.420;2022-12-05T08:01:12;29.42;;;20.70;;
72109;SDS011;59983;52.010;5.420;2022-12-05T08:03:39;27.92;;;21.15;;
72109;SDS011;59983;52.010;5.420;2022-12-05T08:06:08;24.13;;;19.37;;
72109;SDS011;59983;52.010;5.420;2022-12-05T08:08:39;32.00;;;20.85;;
72109;SDS011;59983;52.010;5.420;2022-12-05T08:11:07;29.58;;;21.83;;
72109;SDS011;59983;52.010;5.420;2022-12-05T08:13:36;25.48;;;20.25;;
72109;SDS011;59983;52.010;5.420;2022-12-05T08:16:03;26.70;;;20.50;;
72109;SDS011;59983;52.010;5.420;2022-12-05T08:18:31;29.77;;;20.37;;
72109;SDS011;59983;52.010;5.420;2022-12-05T08:21:01;30.60;;;19.88;;
72109;SDS011;59983;52.010;5.420;2022-12-05T08:23:33;28.40;;;19.75;;
72109;SDS011;59983;52.010;5.420;2022-12-05T08:26:00;27.77;;;20.25;;
72109;SDS011;59983;52.010;5.420;2022-12-05T08:28:28;30.15;;;20.73;;
72109;SDS011;59983;52.010;5.420;2022-12-05T08:31:01;25.23;;;20.37;;
72109;SDS011;59983;52.010;5.420;2022-12-05T08:33:32;23.77;;;19.92;;
72109;SDS011;59983;52.010;5.420;2022-12-05T08:36:00;25.88;;;20.70;;
72109;SDS011;59983;52.010;5.420;2022-12-05T08:38:28;26.00;;;20.48;;
72109;SDS011;59983;52.010;5.420;2022-12-05T08:40:55;25.17;;;18.92;;
72109;SDS011;59983;52.010;5.420;2022-12-05T08:43:21;27.70;;;19.17;;
72109;SDS011;59983;52.010;5.420;2022-12-05T08:45:49;23.60;;;18.80;;
72109;SDS011;59983;52.010;5.420;2022-12-05T08:48:19;27.92;;;19.77;;
72109;SDS011;59983;52.010;5.420;2022-12-05T08:50:54;33.60;;;20.00;;
72109;SDS011;59983;52.010;5.420;2022-12-05T08:53:21;27.75;;;20.02;;
72109;SDS011;59983;52.010;5.420;2022-12-05T08:55:47;26.97;;;19.93;;
72109;SDS011;59983;52.010;5.420;2022-12-05T08:58:14;26.33;;;18.95;;
72109;SDS011;59983;52.010;5.420;2022-12-05T09:00:41;28.83;;;19.90;;
72109;SDS011;59983;52.010;5.420;2022-12-05T09:03:09;27.02;;;19.02;;
72109;SDS011;59983;52.010;5.420;2022-12-05T09:05:36;26.58;;;18.65;;
72109;SDS011;59983;52.010;5.420;2022-12-05T09:08:04;24.63;;;19.70;;
72109;SDS011;59983;52.010;5.420;2022-12-05T09:10:30;27.67;;;18.73;;
72109;SDS011;59983;52.010;5.420;2022-12-05T09:12:57;22.35;;;17.52;;
72109;SDS011;59983;52.010;5.420;2022-12-05T09:15:23;22.35;;;17.48;;
72109;SDS011;59983;52.010;5.420;2022-12-05T09:17:50;23.02;;;18.55;;
72109;SDS011;59983;52.010;5.420;2022-12-05T09:20:16;25.20;;;18.13;;
72109;SDS011;59983;52.010;5.420;2022-12-05T09:22:43;24.02;;;18.75;;
72109;SDS011;59983;52.010;5.420;2022-12-05T09:25:09;30.15;;;20.67;;
72109;SDS011;59983;52.010;5.420;2022-12-05T09:27:36;26.45;;;19.95;;
72109;SDS011;59983;52.010;5.420;2022-12-05T09:30:04;26.00;;;19.52;;
72109;SDS011;59983;52.010;5.420;2022-12-05T09:32:31;27.67;;;20.13;;
72109;SDS011;59983;52.010;5.420;2022-12-05T09:34:58;31.15;;;21.00;;
72109;SDS011;59983;52.010;5.420;2022-12-05T09:37:25;26.55;;;20.42;;
72109;SDS011;59983;52.010;5.420;2022-12-05T09:40:07;25.08;;;19.45;;
72109;SDS011;59983;52.010;5.420;2022-12-05T09:42:52;25.90;;;18.70;;
72109;SDS011;59983;52.010;5.420;2022-12-05T09:48:15;29.67;;;20.60;;
72109;SDS011;59983;52.010;5.420;2022-12-05T09:50:47;27.92;;;20.33;;
72109;SDS011;59983;52.010;5.420;2022-12-05T09:53:34;28.50;;;20.40;;
72109;SDS011;59983;52.010;5.420;2022-12-05T09:56:23;28.88;;;20.75;;
72109;SDS011;59983;52.010;5.420;2022-12-05T09:58:54;28.93;;;22.53;;
72109;SDS011;59983;52.010;5.420;2022-12-05T10:12:28;28.93;;;21.27;;
72109;SDS011;59983;52.010;5.420;2022-12-05T10:17:41;23.75;;;19.67;;
72109;SDS011;59983;52.010;5.420;2022-12-05T10:20:16;29.48;;;19.92;;
72109;SDS011;59983;52.010;5.420;2022-12-05T10:22:51;26.25;;;19.67;;
72109;SDS011;59983;52.010;5.420;2022-12-05T10:25:22;26.07;;;19.87;;
72109;SDS011;59983;52.010;5.420;2022-12-05T10:27:56;23.80;;;17.73;;
72109;SDS011;59983;52.010;5.420;2022-12-05T10:30:32;26.00;;;18.45;;
72109;SDS011;59983;52.010;5.420;2022-12-05T10:33:03;26.35;;;18.63;;
72109;SDS011;59983;52.010;5.420;2022-12-05T10:35:38;25.77;;;18.83;;
72109;SDS011;59983;52.010;5.420;2022-12-05T10:38:09;25.33;;;19.73;;
72109;SDS011;59983;52.010;5.420;2022-12-05T10:40:43;24.27;;;19.48;;
72109;SDS011;59983;52.010;5.420;2022-12-05T10:43:15;25.90;;;18.92;;
72109;SDS011;59983;52.010;5.420;2022-12-05T10:45:54;28.42;;;21.08;;
72109;SDS011;59983;52.010;5.420;2022-12-05T10:48:21;25.20;;;19.77;;
72109;SDS011;59983;52.010;5.420;2022-12-05T10:50:52;26.27;;;19.50;;
72109;SDS011;59983;52.010;5.420;2022-12-05T10:53:25;24.85;;;18.60;;
72109;SDS011;59983;52.010;5.420;2022-12-05T10:55:57;26.83;;;19.17;;
72109;SDS011;59983;52.010;5.420;2022-12-05T10:58:54;21.25;;;17.55;;
72109;SDS011;59983;52.010;5.420;2022-12-05T11:01:23;21.20;;;17.20;;
72109;SDS011;59983;52.010;5.420;2022-12-05T11:04:07;19.90;;;17.70;;
72109;SDS011;59983;52.010;5.420;2022-12-05T11:06:50;21.70;;;19.50;;
72109;SDS011;59983;52.010;5.420;2022-12-05T11:09:20;19.80;;;17.70;;
72109;SDS011;59983;52.010;5.420;2022-12-05T11:11:57;19.63;;;16.88;;
72109;SDS011;59983;52.010;5.420;2022-12-05T11:14:28;18.88;;;16.55;;
72109;SDS011;59983;52.010;5.420;2022-12-05T11:16:56;21.37;;;16.97;;
72109;SDS011;59983;52.010;5.420;2022-12-05T11:19:25;19.23;;;17.17;;
72109;SDS011;59983;52.010;5.420;2022-12-05T11:22:02;22.65;;;17.35;;
72109;SDS011;59983;52.010;5.420;2022-12-05T11:24:31;20.98;;;16.70;;
72109;SDS011;59983;52.010;5.420;2022-12-05T11:26:59;19.90;;;17.52;;
72109;SDS011;59983;52.010;5.420;2022-12-05T11:29:53;20.67;;;16.23;;
72109;SDS011;59983;52.010;5.420;2022-12-05T11:32:26;20.65;;;17.30;;
72109;SDS011;59983;52.010;5.420;2022-12-05T11:51:43;20.52;;;16.52;;
72109;SDS011;59983;52.010;5.420;2022-12-05T11:54:20;17.73;;;15.95;;
72109;SDS011;59983;52.010;5.420;2022-12-05T11:57:34;20.07;;;16.27;;
72109;SDS011;59983;52.010;5.420;2022-12-05T12:05:38;17.75;;;16.10;;
72109;SDS011;59983;52.010;5.420;2022-12-05T12:13:24;15.55;;;14.10;;
72109;SDS011;59983;52.010;5.420;2022-12-05T12:24:26;10.87;;;10.00;;
72109;SDS011;59983;52.010;5.420;2022-12-05T12:32:38;10.07;;;9.48;;
72109;SDS011;59983;52.010;5.420;2022-12-05T12:48:44;10.23;;;9.25;;
72109;SDS011;59983;52.010;5.420;2022-12-05T12:51:32;9.83;;;8.67;;
72109;SDS011;59983;52.010;5.420;2022-12-05T12:57:16;8.73;;;8.00;;
72109;SDS011;59983;52.010;5.420;2022-12-05T13:02:51;8.73;;;8.25;;
72109;SDS011;59983;52.010;5.420;2022-12-05T13:05:30;8.60;;;8.07;;
72109;SDS011;59983;52.010;5.420;2022-12-05T13:08:20;9.30;;;8.70;;
72109;SDS011;59983;52.010;5.420;2022-12-05T13:11:05;9.18;;;8.38;;
72109;SDS011;59983;52.010;5.420;2022-12-05T13:13:36;7.63;;;7.22;;
72109;SDS011;59983;52.010;5.420;2022-12-05T13:16:08;7.65;;;7.05;;
72109;SDS011;59983;52.010;5.420;2022-12-05T13:18:41;8.07;;;7.57;;
72109;SDS011;59983;52.010;5.420;2022-12-05T13:21:08;8.77;;;8.07;;
72109;SDS011;59983;52.010;5.420;2022-12-05T13:23:39;7.63;;;7.22;;
72109;SDS011;59983;52.010;5.420;2022-12-05T13:26:10;8.32;;;7.90;;
72109;SDS011;59983;52.010;5.420;2022-12-05T13:28:39;8.15;;;7.68;;
72109;SDS011;59983;52.010;5.420;2022-12-05T13:31:14;8.43;;;7.83;;
72109;SDS011;59983;52.010;5.420;2022-12-05T13:33:46;8.05;;;7.45;;
72109;SDS011;59983;52.010;5.420;2022-12-05T13:36:15;7.85;;;7.25;;
72109;SDS011;59983;52.010;5.420;2022-12-05T13:39:04;7.82;;;7.32;;
72109;SDS011;59983;52.010;5.420;2022-12-05T13:42:20;7.28;;;6.82;;
72109;SDS011;59983;52.010;5.420;2022-12-05T13:44:51;7.83;;;7.40;;
72109;SDS011;59983;52.010;5.420;2022-12-05T13:47:36;7.40;;;7.00;;
72109;SDS011;59983;52.010;5.420;2022-12-05T13:50:20;8.07;;;7.57;;
72109;SDS011;59983;52.010;5.420;2022-12-05T13:53:19;8.68;;;8.18;;
72109;SDS011;59983;52.010;5.420;2022-12-05T13:56:21;7.82;;;7.40;;
72109;SDS011;59983;52.010;5.420;2022-12-05T13:58:57;8.00;;;7.40;;
72109;SDS011;59983;52.010;5.420;2022-12-05T14:04:20;8.25;;;7.72;;
72109;SDS011;59983;52.010;5.420;2022-12-05T14:07:08;9.38;;;8.77;;
72109;SDS011;59983;52.010;5.420;2022-12-05T14:09:54;9.20;;;8.60;;
72109;SDS011;59983;52.010;5.420;2022-12-05T14:14:58;10.52;;;9.77;;
72109;SDS011;59983;52.010;5.420;2022-12-05T14:17:40;9.43;;;8.82;;
72109;SDS011;59983;52.010;5.420;2022-12-05T14:22:41;14.15;;;11.93;;
72109;SDS011;59983;52.010;5.420;2022-12-05T14:33:30;11.15;;;10.30;;
72109;SDS011;59983;52.010;5.420;2022-12-05T14:36:03;9.48;;;8.05;;
72109;SDS011;59983;52.010;5.420;2022-12-05T14:38:33;8.20;;;7.60;;
72109;SDS011;59983;52.010;5.420;2022-12-05T14:41:22;8.57;;;7.95;;
72109;SDS011;59983;52.010;5.420;2022-12-05T14:43:54;8.60;;;7.97;;
72109;SDS011;59983;52.010;5.420;2022-12-05T14:46:23;7.15;;;6.65;;
72109;SDS011;59983;52.010;5.420;2022-12-05T14:48:52;9.02;;;8.48;;
72109;SDS011;59983;52.010;5.420;2022-12-05T14:54:15;9.30;;;8.70;;
72109;SDS011;59983;52.010;5.420;2022-12-05T14:56:50;9.00;;;8.38;;
72109;SDS011;59983;52.010;5.420;2022-12-05T15:01:55;9.38;;;8.73;;
72109;SDS011;59983;52.010;5.420;2022-12-05T15:04:48;9.53;;;8.83;;
72109;SDS011;59983;52.010;5.420;2022-12-05T15:07:45;9.02;;;8.43;;
72109;SDS011;59983;52.010;5.420;2022-12-05T15:10:15;11.13;;;10.20;;
72109;SDS011;59983;52.010;5.420;2022-12-05T15:15:34;9.38;;;8.57;;
72109;SDS011;59983;52.010;5.420;2022-12-05T15:18:19;10.63;;;8.97;;
72109;SDS011;59983;52.010;5.420;2022-12-05T15:21:08;9.68;;;8.65;;
72109;SDS011;59983;52.010;5.420;2022-12-05T15:23:45;11.43;;;9.40;;
72109;SDS011;59983;52.010;5.420;2022-12-05T15:31:52;9.57;;;8.77;;
72109;SDS011;59983;52.010;5.420;2022-12-05T15:36:59;9.35;;;8.75;;
72109;SDS011;59983;52.010;5.420;2022-12-05T15:39:55;9.20;;;8.43;;
72109;SDS011;59983;52.010;5.420;2022-12-05T15:42:23;9.15;;;8.50;;
72109;SDS011;59983;52.010;5.420;2022-12-05T15:47:38;8.35;;;7.85;;
72109;SDS011;59983;52.010;5.420;2022-12-05T15:50:32;7.80;;;7.38;;
72109;SDS011;59983;52.010;5.420;2022-12-05T15:56:06;8.68;;;8.02;;
72109;SDS011;59983;52.010;5.420;2022-12-05T15:58:43;10.50;;;9.80;;
72109;SDS011;59983;52.010;5.420;2022-12-05T16:01:16;9.07;;;8.48;;
72109;SDS011;59983;52.010;5.420;2022-12-05T16:03:54;9.50;;;8.82;;
72109;SDS011;59983;52.010;5.420;2022-12-05T16:06:41;9.25;;;8.52;;
72109;SDS011;59983;52.010;5.420;2022-12-05T16:09:16;11.18;;;10.38;;
72109;SDS011;59983;52.010;5.420;2022-12-05T16:11:51;10.20;;;9.60;;
72109;SDS011;59983;52.010;5.420;2022-12-05T16:14:22;9.73;;;9.13;;
72109;SDS011;59983;52.010;5.420;2022-12-05T16:17:14;10.63;;;9.77;;
72109;SDS011;59983;52.010;5.420;2022-12-05T16:19:42;9.43;;;8.73;;
72109;SDS011;59983;52.010;5.420;2022-12-05T16:24:39;10.07;;;9.37;;
72109;SDS011;59983;52.010;5.420;2022-12-05T16:27:13;10.73;;;9.98;;
72109;SDS011;59983;52.010;5.420;2022-12-05T16:29:42;9.93;;;9.23;;
72109;SDS011;59983;52.010;5.420;2022-12-05T16:32:16;10.85;;;9.98;;
72109;SDS011;59983;52.010;5.420;2022-12-05T16:34:46;11.60;;;10.52;;
72109;SDS011;59983;52.010;5.420;2022-12-05T16:37:17;11.67;;;10.67;;
72109;SDS011;59983;52.010;5.420;2022-12-05T16:39:49;11.30;;;10.50;;
72109;SDS011;59983;52.010;5.420;2022-12-05T16:42:26;10.18;;;9.25;;
72109;SDS011;59983;52.010;5.420;2022-12-05T16:50:24;10.93;;;10.17;;
72109;SDS011;59983;52.010;5.420;2022-12-05T16:55:38;11.10;;;10.30;;
72109;SDS011;59983;52.010;5.420;2022-12-05T16:58:08;13.60;;;12.27;;
72109;SDS011;59983;52.010;5.420;2022-12-05T17:00:38;11.85;;;10.75;;
72109;SDS011;59983;52.010;5.420;2022-12-05T17:03:04;17.67;;;14.00;;
72109;SDS011;59983;52.010;5.420;2022-12-05T17:05:57;18.27;;;16.77;;
72109;SDS011;59983;52.010;5.420;2022-12-05T17:08:24;12.63;;;11.48;;
72109;SDS011;59983;52.010;5.420;2022-12-05T17:10:52;12.23;;;11.18;;
72109;SDS011;59983;52.010;5.420;2022-12-05T17:13:18;10.60;;;9.90;;
72109;SDS011;59983;52.010;5.420;2022-12-05T17:15:46;16.57;;;14.67;;
72109;SDS011;59983;52.010;5.420;2022-12-05T17:18:13;22.73;;;16.80;;
72109;SDS011;59983;52.010;5.420;2022-12-05T17:20:43;14.52;;;12.05;;
72109;SDS011;59983;52.010;5.420;2022-12-05T17:23:12;16.20;;;14.70;;
72109;SDS011;59983;52.010;5.420;2022-12-05T17:25:44;13.63;;;12.38;;
72109;SDS011;59983;52.010;5.420;2022-12-05T17:28:14;12.93;;;11.93;;
72109;SDS011;59983;52.010;5.420;2022-12-05T17:30:40;12.20;;;11.30;;
72109;SDS011;59983;52.010;5.420;2022-12-05T17:33:11;10.23;;;9.55;;
72109;SDS011;59983;52.010;5.420;2022-12-05T17:35:39;10.82;;;10.13;;
72109;SDS011;59983;52.010;5.420;2022-12-05T17:38:05;10.95;;;10.15;;
72109;SDS011;59983;52.010;5.420;2022-12-05T17:40:32;11.33;;;10.37;;
72109;SDS011;59983;52.010;5.420;2022-12-05T17:42:59;10.55;;;9.95;;
72109;SDS011;59983;52.010;5.420;2022-12-05T17:45:26;10.27;;;9.43;;